createdAt,value
2022-08-02T00:00:35.449Z,22.69
2022-08-02T00:03:02.889Z,22.52
2022-08-02T00:05:30.260Z,22.47
2022-08-02T00:07:57.658Z,22.47
2022-08-02T00:10:25.139Z,22.75
2022-08-02T00:12:53.200Z,22.56
2022-08-02T00:15:20.767Z,22.61
2022-08-02T00:17:48.803Z,22.73
2022-08-02T00:20:16.669Z,22.59
2022-08-02T00:22:43.953Z,22.61
2022-08-02T00:25:11.524Z,22.37
2022-08-02T00:27:38.832Z,22.41
2022-08-02T00:30:06.675Z,22.40
2022-08-02T00:32:34.042Z,22.41
2022-08-02T00:35:01.420Z,22.34
2022-08-02T00:37:28.753Z,22.31
2022-08-02T00:39:57.524Z,22.38
2022-08-02T00:42:24.839Z,22.42
2022-08-02T00:44:52.377Z,22.25
2022-08-02T00:47:20.072Z,22.33
2022-08-02T00:49:47.575Z,22.37
2022-08-02T00:52:15.132Z,22.13
2022-08-02T00:54:42.423Z,22.25
2022-08-02T00:57:09.836Z,22.35
2022-08-02T00:59:37.426Z,22.40
2022-08-02T01:02:04.788Z,22.25
2022-08-02T01:04:32.476Z,22.17
2022-08-02T01:07:13.600Z,22.03
2022-08-02T01:09:44.711Z,22.07
2022-08-02T01:12:12.622Z,22.20
2022-08-02T01:14:44.850Z,22.20
2022-08-02T01:17:21.114Z,22.20
2022-08-02T01:19:54.594Z,22.10
2022-08-02T01:23:02.067Z,22.07
2022-08-02T01:25:41.738Z,21.89
2022-08-02T01:28:26.606Z,21.83
2022-08-02T01:30:57.841Z,21.79
2022-08-02T01:33:26.409Z,21.96
2022-08-02T01:35:54.370Z,22.14
2022-08-02T01:38:27.796Z,21.96
2022-08-02T01:40:55.147Z,21.90
2022-08-02T01:43:22.369Z,21.97
2022-08-02T01:45:49.737Z,22.00
2022-08-02T01:48:17.042Z,22.00
2022-08-02T01:50:44.321Z,21.96
2022-08-02T01:53:11.730Z,22.07
2022-08-02T01:55:58.504Z,22.18
2022-08-02T01:58:34.939Z,22.13
2022-08-02T02:01:02.843Z,21.97
2022-08-02T02:03:30.259Z,21.87
2022-08-02T02:05:57.978Z,21.70
2022-08-02T02:08:30.403Z,21.65
2022-08-02T02:10:57.864Z,21.62
2022-08-02T02:13:45.116Z,21.41
2022-08-02T02:16:12.403Z,21.31
2022-08-02T02:18:40.792Z,21.41
2022-08-02T02:21:08.059Z,21.66
2022-08-02T02:23:35.518Z,21.80
2022-08-02T02:26:04.221Z,21.79
2022-08-02T02:28:32.063Z,21.65
2022-08-02T02:31:06.819Z,21.52
2022-08-02T02:33:37.876Z,21.41
2022-08-02T02:36:05.349Z,21.36
2022-08-02T02:38:32.669Z,21.35
2022-08-02T02:41:04.382Z,21.45
2022-08-02T02:43:32.696Z,21.59
2022-08-02T02:46:00.946Z,21.47
2022-08-02T02:48:28.237Z,21.63
2022-08-02T02:50:55.982Z,21.53
2022-08-02T02:53:23.311Z,21.35
2022-08-02T02:56:01.743Z,21.46
2022-08-02T02:58:31.305Z,21.47
2022-08-02T03:01:17.209Z,21.52
2022-08-02T03:03:45.198Z,21.49
2022-08-02T03:06:15.666Z,21.59
2022-08-02T03:08:43.846Z,21.46
2022-08-02T03:11:11.211Z,21.32
2022-08-02T03:13:38.609Z,21.49
2022-08-02T03:16:06.438Z,21.59
2022-08-02T03:18:40.941Z,21.75
2022-08-02T03:21:09.772Z,21.75
2022-08-02T03:23:37.375Z,21.94
2022-08-02T03:26:04.812Z,21.94
2022-08-02T03:28:32.284Z,21.94
2022-08-02T03:31:00.951Z,22.17
2022-08-02T03:33:28.348Z,22.25
2022-08-02T03:35:59.027Z,22.38
2022-08-02T03:38:26.913Z,22.35
2022-08-02T03:40:57.929Z,22.37
2022-08-02T03:43:25.360Z,22.40
2022-08-02T03:45:56.321Z,22.25
2022-08-02T03:48:33.883Z,22.25
2022-08-02T03:51:02.462Z,22.40
2022-08-02T03:53:29.916Z,22.51
2022-08-02T03:55:57.326Z,22.58
2022-08-02T03:58:25.287Z,22.66
2022-08-02T04:00:53.928Z,22.61
2022-08-02T04:03:21.338Z,22.61
2022-08-02T04:06:00.834Z,22.52
2022-08-02T04:08:37.674Z,22.65
2022-08-02T04:11:24.996Z,22.68
2022-08-02T04:13:52.489Z,22.92
2022-08-02T04:16:35.302Z,22.88
2022-08-02T04:19:03.328Z,22.76
2022-08-02T04:21:50.275Z,22.66
2022-08-02T04:24:28.352Z,22.56
2022-08-02T04:27:06.462Z,22.61
2022-08-02T04:29:37.323Z,22.69
2022-08-02T04:32:05.433Z,22.59
2022-08-02T04:34:32.711Z,22.56
2022-08-02T04:37:00.234Z,22.47
2022-08-02T04:39:28.127Z,22.51
2022-08-02T04:41:57.731Z,22.45
2022-08-02T04:44:25.429Z,22.44
2022-08-02T04:46:52.957Z,22.68
2022-08-02T04:49:20.377Z,22.92
2022-08-02T04:51:47.875Z,22.79
2022-08-02T04:54:15.230Z,22.79
2022-08-02T04:56:42.631Z,22.85
2022-08-02T04:59:10.025Z,22.86
2022-08-02T05:01:37.540Z,22.89
2022-08-02T05:04:05.194Z,22.68
2022-08-02T05:06:32.663Z,22.81
2022-08-02T05:09:00.026Z,22.82
2022-08-02T05:11:36.119Z,22.99
2022-08-02T05:14:05.527Z,23.02
2022-08-02T05:16:33.025Z,23.12
2022-08-02T05:19:01.180Z,23.20
2022-08-02T05:21:29.792Z,23.19
2022-08-02T05:23:57.206Z,23.34
2022-08-02T05:26:24.650Z,23.49
2022-08-02T05:28:52.042Z,23.53
2022-08-02T05:31:19.366Z,23.46
2022-08-02T05:33:47.115Z,23.44
2022-08-02T05:36:14.617Z,23.36
2022-08-02T05:38:43.144Z,23.36
2022-08-02T05:41:20.479Z,23.24
2022-08-02T05:43:48.145Z,23.13
2022-08-02T05:46:15.559Z,23.23
2022-08-02T05:48:44.660Z,23.26
2022-08-02T05:51:13.291Z,23.28
2022-08-02T05:53:52.236Z,23.24
2022-08-02T05:56:32.713Z,23.40
2022-08-02T05:59:36.801Z,23.53
2022-08-02T06:02:05.293Z,23.62
2022-08-02T06:04:45.592Z,23.71
2022-08-02T06:07:12.921Z,23.72
2022-08-02T06:09:40.404Z,23.62
2022-08-02T06:12:07.958Z,23.71
2022-08-02T06:14:35.362Z,23.88
2022-08-02T06:17:06.018Z,24.02
2022-08-02T06:19:46.943Z,23.99
2022-08-02T06:22:32.981Z,24.08
2022-08-02T06:25:04.414Z,24.26
2022-08-02T06:27:31.855Z,24.40
2022-08-02T06:29:59.342Z,24.44
2022-08-02T06:32:27.728Z,24.53
2022-08-02T06:34:55.076Z,24.76
2022-08-02T06:37:25.283Z,24.78
2022-08-02T06:40:06.986Z,24.77
2022-08-02T06:42:49.490Z,24.95
2022-08-02T06:45:17.287Z,26.78
2022-08-02T06:47:44.700Z,26.58
2022-08-02T06:50:12.129Z,26.04
2022-08-02T06:52:39.404Z,26.27
2022-08-02T06:55:07.608Z,26.01
2022-08-02T06:57:35.128Z,28.49
2022-08-02T07:00:04.931Z,30.41
2022-08-02T07:02:32.350Z,29.18
2022-08-02T07:04:59.703Z,27.70
2022-08-02T07:07:27.912Z,27.60
2022-08-02T07:10:00.928Z,28.29
2022-08-02T07:12:30.472Z,28.66
2022-08-02T07:14:59.602Z,27.77
2022-08-02T07:17:27.761Z,28.26
2022-08-02T07:19:55.213Z,28.77
2022-08-02T07:22:24.549Z,28.78
2022-08-02T07:24:52.184Z,28.46
2022-08-02T07:27:20.806Z,28.57
2022-08-02T07:29:48.275Z,29.92
2022-08-02T07:32:17.160Z,30.24
2022-08-02T07:34:51.170Z,29.87
2022-08-02T07:37:35.343Z,30.81
2022-08-02T07:40:13.970Z,30.83
2022-08-02T07:42:43.641Z,31.76
2022-08-02T07:45:11.701Z,31.66
2022-08-02T07:47:40.130Z,30.67
2022-08-02T07:50:08.042Z,30.75
2022-08-02T07:52:35.426Z,32.51
2022-08-02T07:55:02.745Z,33.02
2022-08-02T07:57:30.106Z,32.51
2022-08-02T07:59:57.473Z,31.12
2022-08-02T08:02:25.214Z,30.12
2022-08-02T08:04:52.877Z,30.92
2022-08-02T08:07:20.524Z,32.22
2022-08-02T08:09:51.278Z,32.01
2022-08-02T08:12:23.843Z,31.99
2022-08-02T08:14:51.449Z,32.99
2022-08-02T08:17:18.778Z,33.69
2022-08-02T08:19:50.990Z,33.91
2022-08-02T08:22:22.874Z,33.68
2022-08-02T08:24:50.231Z,34.12
2022-08-02T08:27:18.398Z,34.35
2022-08-02T08:29:46.296Z,33.10
2022-08-02T08:32:17.194Z,32.01
2022-08-02T08:34:46.305Z,30.69
2022-08-02T08:37:17.106Z,29.79
2022-08-02T08:39:56.855Z,30.72
2022-08-02T08:42:27.549Z,31.27
2022-08-02T08:44:56.759Z,32.75
2022-08-02T08:47:33.814Z,33.79
2022-08-02T08:50:31.800Z,33.55
2022-08-02T08:53:06.853Z,31.88
2022-08-02T08:55:35.424Z,32.38
2022-08-02T08:58:03.480Z,32.11
2022-08-02T09:00:31.580Z,33.47
2022-08-02T09:02:59.135Z,32.04
2022-08-02T09:05:26.944Z,30.82
2022-08-02T09:07:54.357Z,29.77
2022-08-02T09:10:45.547Z,29.49
2022-08-02T09:13:38.049Z,29.14
2022-08-02T09:16:11.248Z,28.91
2022-08-02T09:18:45.890Z,28.64
2022-08-02T09:21:15.420Z,29.06
2022-08-02T09:23:44.986Z,28.98
2022-08-02T09:26:13.973Z,28.93
2022-08-02T09:28:43.201Z,28.83
2022-08-02T09:31:12.555Z,28.76
2022-08-02T09:33:40.720Z,28.86
2022-08-02T09:36:12.487Z,29.18
2022-08-02T09:38:40.744Z,29.06
2022-08-02T09:41:20.855Z,29.29
2022-08-02T09:43:51.886Z,29.46
2022-08-02T09:46:33.779Z,29.58
2022-08-02T09:49:06.712Z,29.18
2022-08-02T09:51:37.074Z,29.34
2022-08-02T09:54:09.486Z,29.31
2022-08-02T09:56:44.819Z,29.22
2022-08-02T09:59:12.323Z,29.15
2022-08-02T10:01:39.881Z,29.39
2022-08-02T10:04:21.352Z,29.11
2022-08-02T10:06:50.760Z,29.07
2022-08-02T10:09:18.150Z,29.15
2022-08-02T10:11:45.605Z,29.04
2022-08-02T10:14:12.868Z,28.87
2022-08-02T10:16:41.674Z,29.12
2022-08-02T10:19:09.077Z,29.39
2022-08-02T10:21:46.897Z,29.39
2022-08-02T10:24:16.373Z,29.12
2022-08-02T10:26:44.984Z,28.49
2022-08-02T10:29:19.495Z,28.66
2022-08-02T10:32:09.456Z,29.18
2022-08-02T10:34:41.384Z,29.24
2022-08-02T10:37:18.720Z,29.58
2022-08-02T10:39:50.498Z,29.63
2022-08-02T10:42:45.352Z,29.32
2022-08-02T10:45:15.321Z,29.72
2022-08-02T10:48:07.233Z,29.79
2022-08-02T10:50:46.737Z,29.59
2022-08-02T10:53:32.651Z,29.90
2022-08-02T10:56:09.420Z,30.00
2022-08-02T10:58:36.817Z,30.03
2022-08-02T11:01:38.591Z,30.23
2022-08-02T11:04:10.596Z,30.37
2022-08-02T11:07:23.458Z,30.72
2022-08-02T11:09:50.966Z,30.58
2022-08-02T11:12:19.631Z,30.21
2022-08-02T11:15:01.826Z,30.02
2022-08-02T11:17:29.150Z,30.25
2022-08-02T11:20:12.627Z,30.67
2022-08-02T11:22:40.695Z,30.54
2022-08-02T11:25:23.355Z,30.27
2022-08-02T11:27:51.745Z,29.69
2022-08-02T11:30:20.610Z,29.52
2022-08-02T11:32:58.614Z,29.32
2022-08-02T11:35:39.505Z,28.97
2022-08-02T11:38:17.371Z,29.08
2022-08-02T11:40:45.308Z,29.56
2022-08-02T11:43:19.657Z,29.63
2022-08-02T11:45:47.606Z,29.70
2022-08-02T11:48:14.941Z,28.83
2022-08-02T11:50:43.557Z,29.04
2022-08-02T11:53:15.194Z,29.06
2022-08-02T11:55:42.594Z,28.98
2022-08-02T11:58:11.909Z,29.07
2022-08-02T12:00:39.344Z,29.25
2022-08-02T12:03:07.136Z,29.14
2022-08-02T12:06:05.023Z,29.32
2022-08-02T12:08:25.163Z,29.62
2022-08-02T12:10:52.952Z,29.66
2022-08-02T12:13:20.456Z,29.51
2022-08-02T12:15:47.893Z,29.38
2022-08-02T12:18:35.642Z,29.04
2022-08-02T12:21:03.439Z,28.78
2022-08-02T12:23:30.843Z,28.80
2022-08-02T12:26:16.087Z,28.97
2022-08-02T12:28:43.676Z,29.27
2022-08-02T12:31:14.200Z,29.35
2022-08-02T12:33:46.667Z,29.18
2022-08-02T12:36:20.019Z,28.57
2022-08-02T12:38:54.137Z,28.59
2022-08-02T12:41:30.474Z,28.97
2022-08-02T12:43:59.468Z,29.10
2022-08-02T12:46:26.890Z,29.18
2022-08-02T12:49:16.814Z,29.34
2022-08-02T12:51:55.659Z,29.25
2022-08-02T12:54:30.981Z,29.24
2022-08-02T12:57:19.604Z,29.22
2022-08-02T12:59:53.294Z,29.06
2022-08-02T13:02:21.678Z,28.94
2022-08-02T13:04:50.696Z,28.88
2022-08-02T13:07:19.215Z,28.81
2022-08-02T13:09:48.419Z,28.77
2022-08-02T13:12:16.497Z,29.18
2022-08-02T13:14:44.282Z,29.58
2022-08-02T13:17:11.868Z,29.54
2022-08-02T13:19:39.351Z,29.70
2022-08-02T13:22:08.617Z,29.82
2022-08-02T13:24:55.208Z,30.07
2022-08-02T13:27:24.350Z,29.86
2022-08-02T13:29:52.136Z,30.34
2022-08-02T13:32:19.558Z,30.69
2022-08-02T13:34:47.188Z,30.34
2022-08-02T13:37:14.548Z,30.41
2022-08-02T13:39:41.990Z,29.92
2022-08-02T13:42:16.012Z,29.76
2022-08-02T13:44:44.573Z,29.42
2022-08-02T13:47:11.913Z,29.42
2022-08-02T13:49:50.521Z,29.31
2022-08-02T13:52:19.181Z,28.94
2022-08-02T13:54:46.533Z,29.22
2022-08-02T13:57:13.924Z,29.48
2022-08-02T13:59:57.740Z,29.73
2022-08-02T14:02:28.402Z,29.65
2022-08-02T14:04:56.318Z,29.63
2022-08-02T14:07:23.916Z,30.03
2022-08-02T14:09:51.395Z,30.00
2022-08-02T14:12:19.687Z,30.06
2022-08-02T14:14:47.121Z,29.87
2022-08-02T14:17:14.457Z,29.65
2022-08-02T14:19:41.782Z,29.55
2022-08-02T14:22:10.863Z,29.44
2022-08-02T14:24:40.135Z,29.48
2022-08-02T14:27:07.514Z,29.15
2022-08-02T14:29:34.839Z,29.10
2022-08-02T14:32:02.361Z,28.98
2022-08-02T14:34:29.864Z,29.04
2022-08-02T14:36:57.225Z,29.35
2022-08-02T14:39:24.650Z,29.82
2022-08-02T14:41:59.622Z,30.10
2022-08-02T14:44:29.058Z,30.20
2022-08-02T14:46:56.540Z,29.93
2022-08-02T14:49:25.699Z,29.99
2022-08-02T14:51:57.360Z,30.03
2022-08-02T14:54:30.998Z,30.30
2022-08-02T14:57:02.963Z,30.54
2022-08-02T14:59:30.411Z,30.86
2022-08-02T15:01:58.434Z,30.58
2022-08-02T15:04:25.985Z,30.37
2022-08-02T15:06:53.597Z,30.25
2022-08-02T15:09:21.809Z,29.76
2022-08-02T15:11:49.657Z,29.45
2022-08-02T15:14:20.392Z,29.54
2022-08-02T15:16:58.121Z,29.35
2022-08-02T15:19:56.768Z,29.75
2022-08-02T15:22:19.157Z,29.87
2022-08-02T15:24:47.727Z,29.85
2022-08-02T15:27:15.903Z,29.77
2022-08-02T15:29:43.869Z,29.96
2022-08-02T15:32:12.006Z,30.04
2022-08-02T15:34:39.982Z,29.97
2022-08-02T15:37:07.522Z,29.97
2022-08-02T15:39:34.857Z,29.85
2022-08-02T15:42:02.413Z,29.56
2022-08-02T15:44:29.732Z,29.65
2022-08-02T15:46:57.313Z,29.89
2022-08-02T15:49:24.907Z,30.13
2022-08-02T15:51:52.703Z,30.23
2022-08-02T15:54:20.530Z,30.30
2022-08-02T15:56:47.869Z,30.10
2022-08-02T15:59:15.212Z,29.83
2022-08-02T16:01:47.056Z,29.80
2022-08-02T16:04:15.827Z,29.85
2022-08-02T16:06:43.793Z,30.07
2022-08-02T16:09:11.145Z,29.99
2022-08-02T16:11:38.389Z,29.83
2022-08-02T16:14:05.886Z,29.76
2022-08-02T16:16:34.206Z,29.48
2022-08-02T16:19:47.119Z,29.49
2022-08-02T16:21:50.595Z,29.59
2022-08-02T16:24:18.390Z,29.56
2022-08-02T16:26:45.688Z,29.51
2022-08-02T16:29:13.170Z,29.45
2022-08-02T16:31:42.825Z,29.55
2022-08-02T16:34:10.595Z,29.46
2022-08-02T16:36:38.263Z,29.45
2022-08-02T16:39:06.720Z,29.49
2022-08-02T16:41:51.395Z,29.52
2022-08-02T16:44:26.845Z,29.38
2022-08-02T16:47:01.305Z,29.35
2022-08-02T16:50:06.909Z,29.36
2022-08-02T16:52:35.072Z,29.27
2022-08-02T16:55:02.494Z,29.29
2022-08-02T16:57:43.330Z,29.24
2022-08-02T17:00:13.411Z,29.06
2022-08-02T17:02:43.182Z,28.96
2022-08-02T17:05:14.102Z,28.76
2022-08-02T17:08:15.198Z,28.77
2022-08-02T17:10:30.479Z,28.56
2022-08-02T17:12:58.006Z,28.49
2022-08-02T17:16:08.769Z,28.53
2022-08-02T17:18:28.998Z,28.63
2022-08-02T17:20:56.529Z,28.57
2022-08-02T17:24:03.805Z,28.45
2022-08-02T17:26:13.297Z,28.42
2022-08-02T17:29:07.067Z,28.33
2022-08-02T17:31:30.043Z,28.09
2022-08-02T17:34:04.452Z,28.09
2022-08-02T17:36:32.666Z,28.01
2022-08-02T17:38:59.908Z,27.95
2022-08-02T17:41:37.891Z,28.11
2022-08-02T17:44:37.697Z,27.97
2022-08-02T17:47:08.496Z,27.89
2022-08-02T17:49:43.903Z,27.95
2022-08-02T17:52:51.617Z,27.85
2022-08-02T17:55:03.479Z,27.99
2022-08-02T17:57:58.238Z,28.01
2022-08-02T18:00:18.453Z,27.95
2022-08-02T18:02:52.841Z,27.78
2022-08-02T18:05:35.429Z,27.84
2022-08-02T18:08:07.920Z,27.84
2022-08-02T18:10:35.273Z,27.87
2022-08-02T18:13:03.624Z,27.87
2022-08-02T18:15:32.635Z,27.71
2022-08-02T18:18:01.166Z,27.54
2022-08-02T18:20:28.536Z,27.50
2022-08-02T18:22:58.858Z,27.51
2022-08-02T18:25:36.455Z,27.53
2022-08-02T18:28:11.474Z,27.49
2022-08-02T18:30:38.997Z,27.46
2022-08-02T18:33:55.137Z,27.34
2022-08-02T18:35:55.277Z,27.19
2022-08-02T18:38:25.095Z,27.13
2022-08-02T18:40:55.471Z,27.16
2022-08-02T18:43:25.618Z,27.14
2022-08-02T18:46:07.020Z,27.03
2022-08-02T18:48:46.781Z,27.00
2022-08-02T18:51:15.891Z,26.98
2022-08-02T18:53:43.370Z,27.04
2022-08-02T18:56:19.283Z,27.13
2022-08-02T18:58:52.800Z,27.12
2022-08-02T19:01:31.657Z,26.99
2022-08-02T19:04:01.628Z,26.95
2022-08-02T19:06:29.846Z,26.88
2022-08-02T19:09:11.486Z,26.76
2022-08-02T19:11:47.345Z,26.83
2022-08-02T19:14:24.416Z,26.85
2022-08-02T19:16:59.577Z,26.85
2022-08-02T19:19:29.067Z,26.75
2022-08-02T19:22:26.443Z,26.72
2022-08-02T19:24:47.882Z,26.44
2022-08-02T19:27:15.602Z,26.14
2022-08-02T19:29:50.801Z,25.97
2022-08-02T19:32:42.835Z,25.85
2022-08-02T19:35:19.230Z,25.65
2022-08-02T19:37:56.035Z,25.59
2022-08-02T19:40:28.819Z,25.46
2022-08-02T19:44:26.589Z,25.36
2022-08-02T19:45:51.062Z,25.35
2022-08-02T19:48:24.352Z,25.29
2022-08-02T19:50:54.362Z,25.21
2022-08-02T19:53:28.487Z,25.19
2022-08-02T19:56:01.371Z,25.15
2022-08-02T19:58:31.067Z,25.08
2022-08-02T20:01:00.015Z,25.08
2022-08-02T20:03:51.969Z,25.03
2022-08-02T20:06:16.014Z,24.99
2022-08-02T20:08:53.490Z,25.03
2022-08-02T20:14:11.938Z,24.98
2022-08-02T20:16:41.751Z,24.98
2022-08-02T20:19:09.210Z,25.05
2022-08-02T20:21:38.249Z,25.03
2022-08-02T20:24:11.166Z,25.03
2022-08-02T20:26:47.836Z,24.97
2022-08-02T20:29:17.624Z,24.92
2022-08-02T20:32:04.801Z,24.95
2022-08-02T20:34:32.167Z,24.98
2022-08-02T20:37:56.316Z,24.98
2022-08-02T20:39:48.540Z,24.97
2022-08-02T20:42:23.510Z,25.04
2022-08-02T20:44:55.424Z,24.97
2022-08-02T20:47:27.562Z,24.98
2022-08-02T20:50:30.461Z,25.01
2022-08-02T20:53:03.974Z,24.99
2022-08-02T20:55:32.119Z,24.95
2022-08-02T20:58:02.244Z,24.88
2022-08-02T21:00:30.388Z,24.83
2022-08-02T21:03:00.460Z,24.78
2022-08-02T21:05:43.795Z,24.83
2022-08-02T21:08:16.068Z,24.90
2022-08-02T21:10:43.940Z,24.80
2022-08-02T21:13:22.817Z,24.77
2022-08-02T21:15:53.199Z,24.73
2022-08-02T21:18:27.977Z,24.67
2022-08-02T21:21:00.688Z,24.57
2022-08-02T21:23:29.401Z,24.50
2022-08-02T21:25:58.137Z,24.43
2022-08-02T21:28:35.089Z,24.52
2022-08-02T21:31:14.861Z,24.57
2022-08-02T21:33:56.844Z,24.41
2022-08-02T21:36:30.428Z,24.50
2022-08-02T21:39:04.882Z,24.37
2022-08-02T21:41:39.984Z,24.35
2022-08-02T21:44:21.861Z,24.39
2022-08-02T21:46:51.052Z,24.46
2022-08-02T21:49:20.023Z,24.41
2022-08-02T21:51:49.773Z,24.33
2022-08-02T21:54:20.428Z,24.32
2022-08-02T21:56:52.780Z,24.25
2022-08-02T21:59:25.354Z,24.25
2022-08-02T22:01:56.520Z,24.30
2022-08-02T22:04:28.055Z,24.10
2022-08-02T22:06:55.596Z,23.92
2022-08-02T22:09:43.725Z,23.78
2022-08-02T22:12:12.596Z,23.75
2022-08-02T22:14:40.379Z,23.89
2022-08-02T22:17:13.434Z,23.97
2022-08-02T22:19:50.964Z,23.74
2022-08-02T22:22:28.536Z,23.81
2022-08-02T22:24:56.998Z,23.81
2022-08-02T22:28:35.482Z,23.60
2022-08-02T22:30:12.541Z,23.44
2022-08-02T22:32:58.632Z,23.39
2022-08-02T22:35:26.428Z,23.46
2022-08-02T22:38:17.269Z,23.39
2022-08-02T22:40:44.076Z,23.26
2022-08-02T22:43:11.413Z,23.16
2022-08-02T22:45:49.760Z,23.19
2022-08-02T22:48:17.070Z,23.26
2022-08-02T22:50:44.649Z,23.31
2022-08-02T22:53:12.336Z,23.20
2022-08-02T22:55:41.607Z,23.13
2022-08-02T22:58:09.692Z,23.09
2022-08-02T22:59:05.637Z,25.01
2022-08-02T23:00:36.980Z,23.04
2022-08-02T23:03:06.861Z,23.03
2022-08-02T23:05:34.486Z,22.98
2022-08-02T23:08:01.818Z,22.85
2022-08-02T23:10:29.237Z,22.86
2022-08-02T23:12:59.095Z,22.89
2022-08-02T23:15:26.936Z,22.92
2022-08-02T23:18:13.123Z,22.92
2022-08-02T23:20:41.495Z,22.86
2022-08-02T23:23:11.885Z,22.82
2022-08-02T23:25:39.344Z,22.62
2022-08-02T23:28:06.619Z,22.56
2022-08-02T23:30:33.939Z,22.61
2022-08-02T23:33:01.279Z,22.59
2022-08-02T23:35:29.693Z,22.59
2022-08-02T23:38:00.916Z,22.47
2022-08-02T23:40:38.865Z,22.41
2022-08-02T23:43:13.679Z,22.37
2022-08-02T23:45:44.614Z,22.14
2022-08-02T23:48:12.213Z,22.18
2022-08-02T23:50:39.715Z,22.18
2022-08-02T23:53:07.400Z,22.21
2022-08-02T23:55:34.973Z,21.97
2022-08-02T23:58:02.321Z,21.62
